sensor_id;sensor_type;location;lat;lon;timestamp;P1;durP1;ratioP1;P2;durP2;ratioP2
57846;SDS011;43675;50.030;21.952;2023-09-19T00:00:22;25.10;;;23.00;;
57846;SDS011;43675;50.030;21.952;2023-09-19T00:03:08;25.60;;;23.30;;
57846;SDS011;43675;50.030;21.952;2023-09-19T00:05:37;25.30;;;22.90;;
57846;SDS011;43675;50.030;21.952;2023-09-19T00:08:04;25.20;;;23.00;;
57846;SDS011;43675;50.030;21.952;2023-09-19T00:10:32;23.80;;;21.90;;
57846;SDS011;43675;50.030;21.952;2023-09-19T00:12:59;24.40;;;22.30;;
57846;SDS011;43675;50.030;21.952;2023-09-19T00:15:26;24.30;;;22.30;;
57846;SDS011;43675;50.030;21.952;2023-09-19T00:17:54;24.20;;;22.00;;
57846;SDS011;43675;50.030;21.952;2023-09-19T00:20:21;23.10;;;21.20;;
57846;SDS011;43675;50.030;21.952;2023-09-19T00:22:51;23.40;;;21.20;;
57846;SDS011;43675;50.030;21.952;2023-09-19T00:25:18;23.40;;;21.50;;
57846;SDS011;43675;50.030;21.952;2023-09-19T00:27:44;22.10;;;20.30;;
57846;SDS011;43675;50.030;21.952;2023-09-19T00:30:11;22.50;;;20.70;;
57846;SDS011;43675;50.030;21.952;2023-09-19T00:32:38;22.60;;;20.90;;
57846;SDS011;43675;50.030;21.952;2023-09-19T00:35:05;22.30;;;20.60;;
57846;SDS011;43675;50.030;21.952;2023-09-19T00:37:32;22.50;;;20.70;;
57846;SDS011;43675;50.030;21.952;2023-09-19T00:39:59;22.60;;;20.60;;
57846;SDS011;43675;50.030;21.952;2023-09-19T00:42:25;22.60;;;20.80;;
57846;SDS011;43675;50.030;21.952;2023-09-19T00:44:52;23.50;;;21.50;;
57846;SDS011;43675;50.030;21.952;2023-09-19T00:47:18;22.70;;;20.90;;
57846;SDS011;43675;50.030;21.952;2023-09-19T00:49:45;21.90;;;20.00;;
57846;SDS011;43675;50.030;21.952;2023-09-19T00:52:13;23.30;;;21.30;;
57846;SDS011;43675;50.030;21.952;2023-09-19T00:54:39;22.50;;;20.70;;
57846;SDS011;43675;50.030;21.952;2023-09-19T00:57:06;23.20;;;21.20;;
57846;SDS011;43675;50.030;21.952;2023-09-19T00:59:33;21.80;;;20.00;;
57846;SDS011;43675;50.030;21.952;2023-09-19T01:02:02;21.00;;;19.30;;
57846;SDS011;43675;50.030;21.952;2023-09-19T01:04:29;21.80;;;19.80;;
57846;SDS011;43675;50.030;21.952;2023-09-19T01:06:56;20.90;;;19.30;;
57846;SDS011;43675;50.030;21.952;2023-09-19T01:09:24;20.90;;;19.10;;
57846;SDS011;43675;50.030;21.952;2023-09-19T01:11:50;20.80;;;19.00;;
57846;SDS011;43675;50.030;21.952;2023-09-19T01:17:29;20.70;;;18.70;;
57846;SDS011;43675;50.030;21.952;2023-09-19T01:25:50;21.60;;;19.50;;
57846;SDS011;43675;50.030;21.952;2023-09-19T01:31:20;21.30;;;19.30;;
57846;SDS011;43675;50.030;21.952;2023-09-19T01:36:28;21.30;;;19.60;;
57846;SDS011;43675;50.030;21.952;2023-09-19T01:38:57;21.00;;;19.30;;
57846;SDS011;43675;50.030;21.952;2023-09-19T01:41:26;20.70;;;19.10;;
57846;SDS011;43675;50.030;21.952;2023-09-19T01:44:05;21.60;;;19.90;;
57846;SDS011;43675;50.030;21.952;2023-09-19T01:46:35;21.40;;;19.60;;
57846;SDS011;43675;50.030;21.952;2023-09-19T01:49:18;21.40;;;19.30;;
57846;SDS011;43675;50.030;21.952;2023-09-19T01:52:09;21.20;;;19.30;;
57846;SDS011;43675;50.030;21.952;2023-09-19T01:54:40;20.10;;;18.40;;
57846;SDS011;43675;50.030;21.952;2023-09-19T01:59:54;20.00;;;18.00;;
57846;SDS011;43675;50.030;21.952;2023-09-19T02:02:27;19.90;;;18.20;;
57846;SDS011;43675;50.030;21.952;2023-09-19T02:04:54;20.60;;;18.70;;
57846;SDS011;43675;50.030;21.952;2023-09-19T02:07:21;19.90;;;18.10;;
57846;SDS011;43675;50.030;21.952;2023-09-19T02:09:48;19.60;;;17.80;;
57846;SDS011;43675;50.030;21.952;2023-09-19T02:12:14;20.50;;;18.70;;
57846;SDS011;43675;50.030;21.952;2023-09-19T02:14:41;19.50;;;17.60;;
57846;SDS011;43675;50.030;21.952;2023-09-19T02:17:08;19.80;;;18.20;;
57846;SDS011;43675;50.030;21.952;2023-09-19T02:19:34;19.10;;;17.60;;
57846;SDS011;43675;50.030;21.952;2023-09-19T02:22:01;19.90;;;18.20;;
57846;SDS011;43675;50.030;21.952;2023-09-19T02:24:27;19.40;;;17.80;;
57846;SDS011;43675;50.030;21.952;2023-09-19T02:26:54;19.00;;;17.30;;
57846;SDS011;43675;50.030;21.952;2023-09-19T02:29:20;18.80;;;17.40;;
57846;SDS011;43675;50.030;21.952;2023-09-19T02:31:47;19.80;;;18.00;;
57846;SDS011;43675;50.030;21.952;2023-09-19T02:34:13;19.90;;;17.90;;
57846;SDS011;43675;50.030;21.952;2023-09-19T02:36:40;19.80;;;18.00;;
57846;SDS011;43675;50.030;21.952;2023-09-19T02:39:06;19.90;;;18.30;;
57846;SDS011;43675;50.030;21.952;2023-09-19T02:41:33;19.90;;;18.20;;
57846;SDS011;43675;50.030;21.952;2023-09-19T02:44:00;19.40;;;17.60;;
57846;SDS011;43675;50.030;21.952;2023-09-19T02:46:26;20.40;;;18.50;;
57846;SDS011;43675;50.030;21.952;2023-09-19T02:48:53;19.80;;;18.00;;
57846;SDS011;43675;50.030;21.952;2023-09-19T02:51:19;20.10;;;18.40;;
57846;SDS011;43675;50.030;21.952;2023-09-19T02:53:46;19.90;;;18.00;;
57846;SDS011;43675;50.030;21.952;2023-09-19T02:56:13;20.10;;;18.40;;
57846;SDS011;43675;50.030;21.952;2023-09-19T02:58:39;20.30;;;18.70;;
57846;SDS011;43675;50.030;21.952;2023-09-19T03:01:09;19.90;;;18.30;;
57846;SDS011;43675;50.030;21.952;2023-09-19T03:03:36;19.60;;;18.10;;
57846;SDS011;43675;50.030;21.952;2023-09-19T03:06:03;19.80;;;18.00;;
57846;SDS011;43675;50.030;21.952;2023-09-19T03:08:29;19.80;;;18.00;;
57846;SDS011;43675;50.030;21.952;2023-09-19T03:10:56;19.00;;;17.40;;
57846;SDS011;43675;50.030;21.952;2023-09-19T03:13:22;19.40;;;17.50;;
57846;SDS011;43675;50.030;21.952;2023-09-19T03:15:49;17.90;;;16.30;;
57846;SDS011;43675;50.030;21.952;2023-09-19T03:18:16;18.70;;;17.20;;
57846;SDS011;43675;50.030;21.952;2023-09-19T03:20:43;18.80;;;17.40;;
57846;SDS011;43675;50.030;21.952;2023-09-19T03:23:09;18.70;;;17.20;;
57846;SDS011;43675;50.030;21.952;2023-09-19T03:25:36;19.70;;;18.10;;
57846;SDS011;43675;50.030;21.952;2023-09-19T03:28:03;18.10;;;16.60;;
57846;SDS011;43675;50.030;21.952;2023-09-19T03:30:30;17.80;;;16.30;;
57846;SDS011;43675;50.030;21.952;2023-09-19T03:32:56;18.20;;;16.50;;
57846;SDS011;43675;50.030;21.952;2023-09-19T03:35:23;18.80;;;17.10;;
57846;SDS011;43675;50.030;21.952;2023-09-19T03:37:49;20.20;;;18.50;;
57846;SDS011;43675;50.030;21.952;2023-09-19T03:40:16;19.60;;;17.80;;
57846;SDS011;43675;50.030;21.952;2023-09-19T03:42:42;20.70;;;18.80;;
57846;SDS011;43675;50.030;21.952;2023-09-19T03:45:09;19.70;;;17.90;;
57846;SDS011;43675;50.030;21.952;2023-09-19T03:47:36;19.70;;;18.20;;
57846;SDS011;43675;50.030;21.952;2023-09-19T03:50:02;20.00;;;18.40;;
57846;SDS011;43675;50.030;21.952;2023-09-19T03:52:29;20.80;;;19.20;;
57846;SDS011;43675;50.030;21.952;2023-09-19T03:54:56;20.50;;;18.60;;
57846;SDS011;43675;50.030;21.952;2023-09-19T03:57:23;21.60;;;19.70;;
57846;SDS011;43675;50.030;21.952;2023-09-19T03:59:49;21.90;;;19.70;;
57846;SDS011;43675;50.030;21.952;2023-09-19T04:02:16;21.70;;;19.60;;
57846;SDS011;43675;50.030;21.952;2023-09-19T04:04:42;21.90;;;20.10;;
57846;SDS011;43675;50.030;21.952;2023-09-19T04:07:09;22.10;;;20.10;;
57846;SDS011;43675;50.030;21.952;2023-09-19T04:09:35;22.50;;;20.50;;
57846;SDS011;43675;50.030;21.952;2023-09-19T04:12:02;21.00;;;19.30;;
57846;SDS011;43675;50.030;21.952;2023-09-19T04:14:29;21.30;;;19.50;;
57846;SDS011;43675;50.030;21.952;2023-09-19T04:16:55;19.40;;;17.70;;
57846;SDS011;43675;50.030;21.952;2023-09-19T04:19:22;21.70;;;19.90;;
57846;SDS011;43675;50.030;21.952;2023-09-19T04:21:48;21.00;;;19.30;;
57846;SDS011;43675;50.030;21.952;2023-09-19T04:24:15;21.40;;;19.50;;
57846;SDS011;43675;50.030;21.952;2023-09-19T04:26:42;21.50;;;19.30;;
57846;SDS011;43675;50.030;21.952;2023-09-19T04:29:08;20.70;;;18.80;;
57846;SDS011;43675;50.030;21.952;2023-09-19T04:31:35;21.50;;;19.60;;
57846;SDS011;43675;50.030;21.952;2023-09-19T04:34:02;21.70;;;19.90;;
57846;SDS011;43675;50.030;21.952;2023-09-19T04:36:29;23.50;;;21.40;;
57846;SDS011;43675;50.030;21.952;2023-09-19T04:38:55;22.90;;;20.80;;
57846;SDS011;43675;50.030;21.952;2023-09-19T04:41:22;23.10;;;21.00;;
57846;SDS011;43675;50.030;21.952;2023-09-19T04:43:48;22.70;;;20.70;;
57846;SDS011;43675;50.030;21.952;2023-09-19T04:46:15;22.30;;;20.30;;
57846;SDS011;43675;50.030;21.952;2023-09-19T04:48:41;22.60;;;20.50;;
57846;SDS011;43675;50.030;21.952;2023-09-19T04:51:08;22.80;;;20.70;;
57846;SDS011;43675;50.030;21.952;2023-09-19T04:53:35;23.30;;;21.10;;
57846;SDS011;43675;50.030;21.952;2023-09-19T04:56:01;22.70;;;20.80;;
57846;SDS011;43675;50.030;21.952;2023-09-19T04:58:28;23.30;;;21.40;;
57846;SDS011;43675;50.030;21.952;2023-09-19T05:00:54;22.30;;;20.40;;
57846;SDS011;43675;50.030;21.952;2023-09-19T05:03:21;22.60;;;20.50;;
57846;SDS011;43675;50.030;21.952;2023-09-19T05:05:48;21.40;;;19.70;;
57846;SDS011;43675;50.030;21.952;2023-09-19T05:08:14;22.10;;;20.20;;
57846;SDS011;43675;50.030;21.952;2023-09-19T05:10:41;21.80;;;19.80;;
57846;SDS011;43675;50.030;21.952;2023-09-19T05:13:08;21.00;;;18.40;;
57846;SDS011;43675;50.030;21.952;2023-09-19T05:15:34;21.70;;;19.80;;
57846;SDS011;43675;50.030;21.952;2023-09-19T05:18:01;21.00;;;19.20;;
57846;SDS011;43675;50.030;21.952;2023-09-19T05:20:27;20.40;;;18.70;;
57846;SDS011;43675;50.030;21.952;2023-09-19T05:23:12;21.00;;;19.20;;
57846;SDS011;43675;50.030;21.952;2023-09-19T05:28:06;21.50;;;19.60;;
57846;SDS011;43675;50.030;21.952;2023-09-19T05:30:34;22.50;;;20.30;;
57846;SDS011;43675;50.030;21.952;2023-09-19T05:33:02;22.20;;;20.20;;
57846;SDS011;43675;50.030;21.952;2023-09-19T05:35:29;21.40;;;19.60;;
57846;SDS011;43675;50.030;21.952;2023-09-19T05:37:55;21.30;;;19.50;;
57846;SDS011;43675;50.030;21.952;2023-09-19T05:40:22;21.90;;;20.00;;
57846;SDS011;43675;50.030;21.952;2023-09-19T05:42:48;22.10;;;20.00;;
57846;SDS011;43675;50.030;21.952;2023-09-19T05:45:15;21.40;;;19.70;;
57846;SDS011;43675;50.030;21.952;2023-09-19T05:47:42;21.30;;;19.50;;
57846;SDS011;43675;50.030;21.952;2023-09-19T05:50:09;20.60;;;18.80;;
57846;SDS011;43675;50.030;21.952;2023-09-19T05:52:36;21.10;;;19.30;;
57846;SDS011;43675;50.030;21.952;2023-09-19T05:55:06;20.70;;;18.90;;
57846;SDS011;43675;50.030;21.952;2023-09-19T05:57:34;21.10;;;19.40;;
57846;SDS011;43675;50.030;21.952;2023-09-19T06:00:00;20.90;;;18.90;;
57846;SDS011;43675;50.030;21.952;2023-09-19T06:02:28;20.60;;;18.80;;
57846;SDS011;43675;50.030;21.952;2023-09-19T06:04:54;21.10;;;19.30;;
57846;SDS011;43675;50.030;21.952;2023-09-19T06:07:22;20.90;;;19.10;;
57846;SDS011;43675;50.030;21.952;2023-09-19T06:09:49;20.20;;;18.60;;
57846;SDS011;43675;50.030;21.952;2023-09-19T06:12:15;20.70;;;18.90;;
57846;SDS011;43675;50.030;21.952;2023-09-19T06:14:42;19.90;;;18.30;;
57846;SDS011;43675;50.030;21.952;2023-09-19T06:17:09;19.20;;;17.70;;
57846;SDS011;43675;50.030;21.952;2023-09-19T06:19:36;20.80;;;19.00;;
57846;SDS011;43675;50.030;21.952;2023-09-19T06:22:02;20.30;;;18.60;;
57846;SDS011;43675;50.030;21.952;2023-09-19T06:24:29;20.80;;;19.10;;
57846;SDS011;43675;50.030;21.952;2023-09-19T06:26:56;21.00;;;19.00;;
57846;SDS011;43675;50.030;21.952;2023-09-19T06:29:22;21.00;;;19.20;;
57846;SDS011;43675;50.030;21.952;2023-09-19T06:31:49;20.60;;;18.80;;
57846;SDS011;43675;50.030;21.952;2023-09-19T06:34:16;21.10;;;19.30;;
57846;SDS011;43675;50.030;21.952;2023-09-19T06:36:42;21.30;;;19.30;;
57846;SDS011;43675;50.030;21.952;2023-09-19T06:39:09;21.60;;;19.50;;
57846;SDS011;43675;50.030;21.952;2023-09-19T06:41:36;21.60;;;19.80;;
57846;SDS011;43675;50.030;21.952;2023-09-19T06:44:04;21.40;;;19.70;;
57846;SDS011;43675;50.030;21.952;2023-09-19T06:46:31;21.60;;;19.70;;
57846;SDS011;43675;50.030;21.952;2023-09-19T06:48:57;21.40;;;19.60;;
57846;SDS011;43675;50.030;21.952;2023-09-19T06:51:24;21.70;;;19.80;;
57846;SDS011;43675;50.030;21.952;2023-09-19T06:53:51;21.80;;;20.00;;
57846;SDS011;43675;50.030;21.952;2023-09-19T06:56:17;21.30;;;19.50;;
57846;SDS011;43675;50.030;21.952;2023-09-19T06:58:44;21.80;;;19.90;;
57846;SDS011;43675;50.030;21.952;2023-09-19T07:01:10;23.00;;;20.80;;
57846;SDS011;43675;50.030;21.952;2023-09-19T07:03:37;22.00;;;20.00;;
57846;SDS011;43675;50.030;21.952;2023-09-19T07:06:03;21.50;;;19.60;;
57846;SDS011;43675;50.030;21.952;2023-09-19T07:08:30;21.50;;;19.60;;
57846;SDS011;43675;50.030;21.952;2023-09-19T07:10:57;22.50;;;20.00;;
57846;SDS011;43675;50.030;21.952;2023-09-19T07:13:23;20.80;;;19.10;;
57846;SDS011;43675;50.030;21.952;2023-09-19T07:15:50;21.70;;;19.80;;
57846;SDS011;43675;50.030;21.952;2023-09-19T07:18:16;20.10;;;18.40;;
57846;SDS011;43675;50.030;21.952;2023-09-19T07:20:44;19.10;;;17.50;;
57846;SDS011;43675;50.030;21.952;2023-09-19T07:23:11;19.20;;;17.60;;
57846;SDS011;43675;50.030;21.952;2023-09-19T07:25:38;19.40;;;17.60;;
57846;SDS011;43675;50.030;21.952;2023-09-19T07:28:05;19.30;;;17.70;;
57846;SDS011;43675;50.030;21.952;2023-09-19T07:30:35;19.70;;;18.00;;
57846;SDS011;43675;50.030;21.952;2023-09-19T07:33:03;19.70;;;17.90;;
57846;SDS011;43675;50.030;21.952;2023-09-19T07:35:29;19.80;;;18.00;;
57846;SDS011;43675;50.030;21.952;2023-09-19T07:37:56;19.10;;;17.40;;
57846;SDS011;43675;50.030;21.952;2023-09-19T07:40:23;19.60;;;17.90;;
57846;SDS011;43675;50.030;21.952;2023-09-19T07:42:50;19.20;;;17.60;;
57846;SDS011;43675;50.030;21.952;2023-09-19T07:45:17;19.20;;;17.60;;
57846;SDS011;43675;50.030;21.952;2023-09-19T07:47:44;19.00;;;17.50;;
57846;SDS011;43675;50.030;21.952;2023-09-19T07:50:11;19.90;;;18.10;;
57846;SDS011;43675;50.030;21.952;2023-09-19T07:52:37;19.70;;;18.00;;
57846;SDS011;43675;50.030;21.952;2023-09-19T07:55:05;19.70;;;17.90;;
57846;SDS011;43675;50.030;21.952;2023-09-19T07:57:32;19.40;;;17.70;;
57846;SDS011;43675;50.030;21.952;2023-09-19T07:59:59;19.50;;;17.80;;
57846;SDS011;43675;50.030;21.952;2023-09-19T08:02:25;18.90;;;17.20;;
57846;SDS011;43675;50.030;21.952;2023-09-19T08:04:52;19.60;;;17.90;;
57846;SDS011;43675;50.030;21.952;2023-09-19T08:07:19;20.20;;;18.40;;
57846;SDS011;43675;50.030;21.952;2023-09-19T08:09:45;19.70;;;18.10;;
57846;SDS011;43675;50.030;21.952;2023-09-19T08:12:12;21.60;;;19.50;;
57846;SDS011;43675;50.030;21.952;2023-09-19T08:14:38;20.50;;;18.80;;
57846;SDS011;43675;50.030;21.952;2023-09-19T08:17:05;20.80;;;18.90;;
57846;SDS011;43675;50.030;21.952;2023-09-19T08:19:31;21.20;;;19.50;;
57846;SDS011;43675;50.030;21.952;2023-09-19T08:21:58;21.80;;;19.70;;
57846;SDS011;43675;50.030;21.952;2023-09-19T08:24:25;21.90;;;19.70;;
57846;SDS011;43675;50.030;21.952;2023-09-19T08:26:52;22.00;;;20.20;;
57846;SDS011;43675;50.030;21.952;2023-09-19T08:29:19;21.60;;;19.80;;
57846;SDS011;43675;50.030;21.952;2023-09-19T08:31:45;20.80;;;19.20;;
57846;SDS011;43675;50.030;21.952;2023-09-19T08:34:13;21.10;;;19.20;;
57846;SDS011;43675;50.030;21.952;2023-09-19T08:36:40;21.40;;;19.70;;
57846;SDS011;43675;50.030;21.952;2023-09-19T08:39:06;21.40;;;19.50;;
57846;SDS011;43675;50.030;21.952;2023-09-19T08:41:33;21.10;;;19.10;;
57846;SDS011;43675;50.030;21.952;2023-09-19T08:43:59;21.70;;;19.50;;
57846;SDS011;43675;50.030;21.952;2023-09-19T08:46:26;20.70;;;18.90;;
57846;SDS011;43675;50.030;21.952;2023-09-19T08:49:07;21.00;;;19.30;;
57846;SDS011;43675;50.030;21.952;2023-09-19T08:51:41;20.90;;;19.10;;
57846;SDS011;43675;50.030;21.952;2023-09-19T08:54:11;21.80;;;19.50;;
57846;SDS011;43675;50.030;21.952;2023-09-19T08:56:47;20.70;;;19.00;;
57846;SDS011;43675;50.030;21.952;2023-09-19T08:59:15;20.70;;;18.90;;
57846;SDS011;43675;50.030;21.952;2023-09-19T09:01:47;21.10;;;19.30;;
57846;SDS011;43675;50.030;21.952;2023-09-19T09:04:14;21.70;;;20.00;;
57846;SDS011;43675;50.030;21.952;2023-09-19T09:06:41;20.80;;;19.20;;
57846;SDS011;43675;50.030;21.952;2023-09-19T09:09:09;20.50;;;18.70;;
57846;SDS011;43675;50.030;21.952;2023-09-19T09:11:36;21.00;;;19.20;;
57846;SDS011;43675;50.030;21.952;2023-09-19T09:14:05;21.80;;;19.70;;
57846;SDS011;43675;50.030;21.952;2023-09-19T09:16:32;21.20;;;19.00;;
57846;SDS011;43675;50.030;21.952;2023-09-19T09:19:00;20.20;;;18.40;;
57846;SDS011;43675;50.030;21.952;2023-09-19T09:21:27;20.30;;;18.70;;
57846;SDS011;43675;50.030;21.952;2023-09-19T09:23:54;20.40;;;18.80;;
57846;SDS011;43675;50.030;21.952;2023-09-19T09:29:06;20.30;;;18.30;;
57846;SDS011;43675;50.030;21.952;2023-09-19T09:31:33;19.60;;;18.10;;
57846;SDS011;43675;50.030;21.952;2023-09-19T09:33:59;19.70;;;18.20;;
57846;SDS011;43675;50.030;21.952;2023-09-19T09:36:36;19.50;;;18.00;;
57846;SDS011;43675;50.030;21.952;2023-09-19T09:39:06;20.10;;;18.40;;
57846;SDS011;43675;50.030;21.952;2023-09-19T09:41:36;20.00;;;18.10;;
57846;SDS011;43675;50.030;21.952;2023-09-19T09:44:21;20.60;;;18.70;;
57846;SDS011;43675;50.030;21.952;2023-09-19T09:46:48;19.60;;;18.10;;
57846;SDS011;43675;50.030;21.952;2023-09-19T09:49:18;20.00;;;18.40;;
57846;SDS011;43675;50.030;21.952;2023-09-19T09:51:50;19.90;;;18.30;;
57846;SDS011;43675;50.030;21.952;2023-09-19T09:54:37;20.40;;;18.40;;
57846;SDS011;43675;50.030;21.952;2023-09-19T10:02:10;19.90;;;18.30;;
57846;SDS011;43675;50.030;21.952;2023-09-19T10:04:36;20.40;;;18.70;;
57846;SDS011;43675;50.030;21.952;2023-09-19T10:07:03;20.30;;;18.70;;
57846;SDS011;43675;50.030;21.952;2023-09-19T10:09:30;20.30;;;18.60;;
57846;SDS011;43675;50.030;21.952;2023-09-19T10:12:03;20.90;;;19.10;;
57846;SDS011;43675;50.030;21.952;2023-09-19T10:14:34;20.80;;;19.00;;
57846;SDS011;43675;50.030;21.952;2023-09-19T10:17:04;21.40;;;19.60;;
57846;SDS011;43675;50.030;21.952;2023-09-19T10:22:04;21.10;;;19.20;;
57846;SDS011;43675;50.030;21.952;2023-09-19T10:24:32;21.20;;;19.30;;
57846;SDS011;43675;50.030;21.952;2023-09-19T10:27:01;21.30;;;19.40;;
57846;SDS011;43675;50.030;21.952;2023-09-19T10:29:28;21.40;;;19.30;;
57846;SDS011;43675;50.030;21.952;2023-09-19T10:31:58;20.60;;;18.70;;
57846;SDS011;43675;50.030;21.952;2023-09-19T10:34:26;20.10;;;18.40;;
57846;SDS011;43675;50.030;21.952;2023-09-19T10:36:55;20.20;;;18.40;;
57846;SDS011;43675;50.030;21.952;2023-09-19T10:39:22;20.30;;;18.20;;
57846;SDS011;43675;50.030;21.952;2023-09-19T10:41:50;19.80;;;18.10;;
57846;SDS011;43675;50.030;21.952;2023-09-19T10:44:17;19.60;;;18.00;;
57846;SDS011;43675;50.030;21.952;2023-09-19T10:46:57;19.70;;;17.90;;
57846;SDS011;43675;50.030;21.952;2023-09-19T10:49:24;19.10;;;17.40;;
57846;SDS011;43675;50.030;21.952;2023-09-19T10:51:52;19.30;;;17.60;;
57846;SDS011;43675;50.030;21.952;2023-09-19T10:54:22;19.00;;;17.50;;
57846;SDS011;43675;50.030;21.952;2023-09-19T10:56:53;18.40;;;17.00;;
57846;SDS011;43675;50.030;21.952;2023-09-19T10:59:21;18.90;;;17.30;;
57846;SDS011;43675;50.030;21.952;2023-09-19T11:01:49;18.30;;;16.90;;
57846;SDS011;43675;50.030;21.952;2023-09-19T11:04:37;18.50;;;16.90;;
57846;SDS011;43675;50.030;21.952;2023-09-19T11:15:03;17.50;;;16.00;;
57846;SDS011;43675;50.030;21.952;2023-09-19T11:17:30;18.50;;;16.80;;
57846;SDS011;43675;50.030;21.952;2023-09-19T11:30:34;17.60;;;16.10;;
57846;SDS011;43675;50.030;21.952;2023-09-19T11:46:25;16.70;;;15.30;;
57846;SDS011;43675;50.030;21.952;2023-09-19T11:48:53;17.40;;;16.00;;
57846;SDS011;43675;50.030;21.952;2023-09-19T11:51:21;17.50;;;16.20;;
57846;SDS011;43675;50.030;21.952;2023-09-19T11:53:50;17.10;;;15.80;;
57846;SDS011;43675;50.030;21.952;2023-09-19T11:56:18;17.50;;;16.20;;
57846;SDS011;43675;50.030;21.952;2023-09-19T11:58:49;17.20;;;15.90;;
57846;SDS011;43675;50.030;21.952;2023-09-19T12:01:21;17.60;;;16.10;;
57846;SDS011;43675;50.030;21.952;2023-09-19T12:03:58;16.80;;;15.50;;
57846;SDS011;43675;50.030;21.952;2023-09-19T12:06:26;17.50;;;16.20;;
57846;SDS011;43675;50.030;21.952;2023-09-19T12:08:54;18.10;;;16.70;;
57846;SDS011;43675;50.030;21.952;2023-09-19T12:11:22;19.70;;;18.30;;
57846;SDS011;43675;50.030;21.952;2023-09-19T12:13:49;17.20;;;15.90;;
57846;SDS011;43675;50.030;21.952;2023-09-19T12:16:17;17.90;;;16.40;;
57846;SDS011;43675;50.030;21.952;2023-09-19T12:18:46;17.40;;;16.10;;
57846;SDS011;43675;50.030;21.952;2023-09-19T12:21:31;18.30;;;16.60;;
57846;SDS011;43675;50.030;21.952;2023-09-19T12:24:13;17.80;;;16.40;;
57846;SDS011;43675;50.030;21.952;2023-09-19T12:26:41;17.60;;;16.20;;
57846;SDS011;43675;50.030;21.952;2023-09-19T12:29:16;17.50;;;16.10;;
57846;SDS011;43675;50.030;21.952;2023-09-19T12:31:54;17.50;;;16.20;;
57846;SDS011;43675;50.030;21.952;2023-09-19T12:34:30;17.30;;;16.00;;
57846;SDS011;43675;50.030;21.952;2023-09-19T12:39:41;17.80;;;16.50;;
57846;SDS011;43675;50.030;21.952;2023-09-19T12:42:12;18.30;;;16.90;;
57846;SDS011;43675;50.030;21.952;2023-09-19T12:44:43;19.30;;;17.80;;
57846;SDS011;43675;50.030;21.952;2023-09-19T12:47:12;20.70;;;19.00;;
57846;SDS011;43675;50.030;21.952;2023-09-19T12:52:35;26.40;;;24.20;;
57846;SDS011;43675;50.030;21.952;2023-09-19T12:55:03;29.70;;;27.10;;
57846;SDS011;43675;50.030;21.952;2023-09-19T12:57:30;30.80;;;27.40;;
57846;SDS011;43675;50.030;21.952;2023-09-19T12:59:57;33.80;;;30.50;;
57846;SDS011;43675;50.030;21.952;2023-09-19T13:02:23;34.10;;;30.90;;
57846;SDS011;43675;50.030;21.952;2023-09-19T13:04:53;33.80;;;30.70;;
57846;SDS011;43675;50.030;21.952;2023-09-19T13:10:06;33.20;;;30.00;;
57846;SDS011;43675;50.030;21.952;2023-09-19T13:12:37;32.20;;;28.90;;
57846;SDS011;43675;50.030;21.952;2023-09-19T13:15:11;32.70;;;29.40;;
57846;SDS011;43675;50.030;21.952;2023-09-19T13:20:20;35.00;;;31.20;;
57846;SDS011;43675;50.030;21.952;2023-09-19T13:22:56;34.90;;;31.20;;
57846;SDS011;43675;50.030;21.952;2023-09-19T13:25:22;34.20;;;30.70;;
57846;SDS011;43675;50.030;21.952;2023-09-19T13:27:53;33.30;;;29.70;;
57846;SDS011;43675;50.030;21.952;2023-09-19T13:30:24;34.40;;;30.50;;
57846;SDS011;43675;50.030;21.952;2023-09-19T13:32:53;32.50;;;28.90;;
57846;SDS011;43675;50.030;21.952;2023-09-19T13:35:34;34.90;;;31.10;;
57846;SDS011;43675;50.030;21.952;2023-09-19T13:38:01;35.10;;;31.50;;
57846;SDS011;43675;50.030;21.952;2023-09-19T13:40:28;33.80;;;30.30;;
57846;SDS011;43675;50.030;21.952;2023-09-19T13:42:55;34.40;;;30.90;;
57846;SDS011;43675;50.030;21.952;2023-09-19T13:45:21;35.90;;;31.30;;
57846;SDS011;43675;50.030;21.952;2023-09-19T13:47:48;33.40;;;29.80;;
57846;SDS011;43675;50.030;21.952;2023-09-19T13:50:15;34.80;;;30.70;;
57846;SDS011;43675;50.030;21.952;2023-09-19T13:52:42;33.20;;;29.70;;
57846;SDS011;43675;50.030;21.952;2023-09-19T13:55:09;33.60;;;30.00;;
57846;SDS011;43675;50.030;21.952;2023-09-19T13:57:35;38.00;;;31.50;;
57846;SDS011;43675;50.030;21.952;2023-09-19T14:00:02;36.20;;;30.50;;
57846;SDS011;43675;50.030;21.952;2023-09-19T14:02:29;36.20;;;31.70;;
57846;SDS011;43675;50.030;21.952;2023-09-19T14:04:55;36.10;;;32.20;;
57846;SDS011;43675;50.030;21.952;2023-09-19T14:07:23;35.60;;;31.70;;
57846;SDS011;43675;50.030;21.952;2023-09-19T14:09:49;39.70;;;35.10;;
57846;SDS011;43675;50.030;21.952;2023-09-19T14:12:16;36.90;;;33.00;;
57846;SDS011;43675;50.030;21.952;2023-09-19T14:14:42;37.80;;;33.90;;
57846;SDS011;43675;50.030;21.952;2023-09-19T14:17:09;39.50;;;35.30;;
57846;SDS011;43675;50.030;21.952;2023-09-19T14:19:36;38.50;;;34.50;;
57846;SDS011;43675;50.030;21.952;2023-09-19T14:22:03;38.90;;;34.30;;
57846;SDS011;43675;50.030;21.952;2023-09-19T14:24:29;40.10;;;35.90;;
57846;SDS011;43675;50.030;21.952;2023-09-19T14:26:56;39.30;;;35.00;;
57846;SDS011;43675;50.030;21.952;2023-09-19T14:29:23;40.30;;;36.10;;
57846;SDS011;43675;50.030;21.952;2023-09-19T14:31:49;42.20;;;37.90;;
57846;SDS011;43675;50.030;21.952;2023-09-19T14:34:16;39.30;;;35.10;;
57846;SDS011;43675;50.030;21.952;2023-09-19T14:36:42;41.50;;;37.10;;
57846;SDS011;43675;50.030;21.952;2023-09-19T14:39:09;40.70;;;36.50;;
57846;SDS011;43675;50.030;21.952;2023-09-19T14:41:35;42.30;;;38.10;;
57846;SDS011;43675;50.030;21.952;2023-09-19T14:44:02;43.40;;;39.20;;
57846;SDS011;43675;50.030;21.952;2023-09-19T14:46:29;40.90;;;36.80;;
57846;SDS011;43675;50.030;21.952;2023-09-19T14:48:56;43.80;;;39.50;;
57846;SDS011;43675;50.030;21.952;2023-09-19T14:51:22;43.40;;;39.00;;
57846;SDS011;43675;50.030;21.952;2023-09-19T14:53:49;44.60;;;40.00;;
57846;SDS011;43675;50.030;21.952;2023-09-19T14:56:15;44.60;;;40.20;;
57846;SDS011;43675;50.030;21.952;2023-09-19T14:58:42;46.30;;;41.40;;
57846;SDS011;43675;50.030;21.952;2023-09-19T15:01:09;47.40;;;42.40;;
57846;SDS011;43675;50.030;21.952;2023-09-19T15:03:37;47.40;;;41.30;;
57846;SDS011;43675;50.030;21.952;2023-09-19T15:06:11;44.80;;;39.80;;
57846;SDS011;43675;50.030;21.952;2023-09-19T15:08:39;46.90;;;42.30;;
57846;SDS011;43675;50.030;21.952;2023-09-19T15:11:05;46.40;;;41.60;;
57846;SDS011;43675;50.030;21.952;2023-09-19T15:13:32;42.60;;;34.40;;
57846;SDS011;43675;50.030;21.952;2023-09-19T15:18:27;42.50;;;33.80;;
57846;SDS011;43675;50.030;21.952;2023-09-19T15:20:54;41.40;;;33.70;;
57846;SDS011;43675;50.030;21.952;2023-09-19T15:23:21;40.00;;;32.90;;
57846;SDS011;43675;50.030;21.952;2023-09-19T15:25:48;40.00;;;31.90;;
57846;SDS011;43675;50.030;21.952;2023-09-19T15:28:15;42.00;;;33.50;;